sensor_id;sensor_type;location;lat;lon;timestamp;P1;durP1;ratioP1;P2;durP2;ratioP2
61104;SDS011;46987;32.638;-115.438;2023-05-02T00:00:06;27.70;;;3.55;;
61104;SDS011;46987;32.638;-115.438;2023-05-02T00:02:32;24.95;;;3.20;;
61104;SDS011;46987;32.638;-115.438;2023-05-02T00:04:59;28.38;;;3.95;;
61104;SDS011;46987;32.638;-115.438;2023-05-02T00:07:28;31.67;;;5.50;;
61104;SDS011;46987;32.638;-115.438;2023-05-02T00:09:55;23.10;;;3.28;;
61104;SDS011;46987;32.638;-115.438;2023-05-02T00:12:21;23.88;;;4.82;;
61104;SDS011;46987;32.638;-115.438;2023-05-02T00:14:48;27.30;;;4.22;;
61104;SDS011;46987;32.638;-115.438;2023-05-02T00:17:18;19.52;;;3.20;;
61104;SDS011;46987;32.638;-115.438;2023-05-02T00:19:45;30.17;;;4.22;;
61104;SDS011;46987;32.638;-115.438;2023-05-02T00:22:12;26.60;;;2.90;;
61104;SDS011;46987;32.638;-115.438;2023-05-02T00:24:40;40.03;;;4.20;;
61104;SDS011;46987;32.638;-115.438;2023-05-02T00:27:07;37.05;;;4.82;;
61104;SDS011;46987;32.638;-115.438;2023-05-02T00:29:34;34.30;;;5.18;;
61104;SDS011;46987;32.638;-115.438;2023-05-02T00:32:01;23.25;;;3.30;;
61104;SDS011;46987;32.638;-115.438;2023-05-02T00:34:30;20.05;;;3.65;;
61104;SDS011;46987;32.638;-115.438;2023-05-02T00:36:57;97.30;;;10.90;;
61104;SDS011;46987;32.638;-115.438;2023-05-02T00:39:24;20.92;;;3.33;;
61104;SDS011;46987;32.638;-115.438;2023-05-02T00:41:57;26.90;;;4.13;;
61104;SDS011;46987;32.638;-115.438;2023-05-02T00:44:23;16.65;;;2.85;;
61104;SDS011;46987;32.638;-115.438;2023-05-02T00:46:50;20.92;;;2.83;;
61104;SDS011;46987;32.638;-115.438;2023-05-02T00:49:18;21.95;;;4.22;;
61104;SDS011;46987;32.638;-115.438;2023-05-02T00:51:45;24.55;;;3.67;;
61104;SDS011;46987;32.638;-115.438;2023-05-02T00:54:12;22.95;;;3.22;;
61104;SDS011;46987;32.638;-115.438;2023-05-02T00:56:38;27.80;;;3.80;;
61104;SDS011;46987;32.638;-115.438;2023-05-02T00:59:07;21.75;;;4.47;;
61104;SDS011;46987;32.638;-115.438;2023-05-02T01:01:38;26.95;;;3.95;;
61104;SDS011;46987;32.638;-115.438;2023-05-02T01:04:14;30.40;;;3.60;;
61104;SDS011;46987;32.638;-115.438;2023-05-02T01:06:48;33.92;;;4.20;;
61104;SDS011;46987;32.638;-115.438;2023-05-02T01:09:28;32.45;;;4.25;;
61104;SDS011;46987;32.638;-115.438;2023-05-02T01:11:58;22.55;;;3.45;;
61104;SDS011;46987;32.638;-115.438;2023-05-02T01:14:32;20.15;;;3.13;;
61104;SDS011;46987;32.638;-115.438;2023-05-02T01:17:01;19.00;;;3.08;;
61104;SDS011;46987;32.638;-115.438;2023-05-02T01:19:30;30.85;;;6.22;;
61104;SDS011;46987;32.638;-115.438;2023-05-02T01:21:58;26.35;;;3.70;;
61104;SDS011;46987;32.638;-115.438;2023-05-02T01:24:28;27.88;;;4.68;;
61104;SDS011;46987;32.638;-115.438;2023-05-02T01:27:00;36.17;;;4.38;;
61104;SDS011;46987;32.638;-115.438;2023-05-02T01:29:32;30.55;;;4.63;;
61104;SDS011;46987;32.638;-115.438;2023-05-02T01:31:59;27.83;;;3.95;;
61104;SDS011;46987;32.638;-115.438;2023-05-02T01:34:28;30.58;;;4.30;;
61104;SDS011;46987;32.638;-115.438;2023-05-02T01:36:55;45.15;;;5.50;;
61104;SDS011;46987;32.638;-115.438;2023-05-02T01:39:24;47.60;;;5.28;;
61104;SDS011;46987;32.638;-115.438;2023-05-02T01:41:52;34.70;;;4.30;;
61104;SDS011;46987;32.638;-115.438;2023-05-02T01:44:20;35.25;;;4.78;;
61104;SDS011;46987;32.638;-115.438;2023-05-02T01:46:49;27.58;;;4.60;;
61104;SDS011;46987;32.638;-115.438;2023-05-02T01:49:18;45.08;;;4.80;;
61104;SDS011;46987;32.638;-115.438;2023-05-02T01:51:47;34.05;;;5.05;;
61104;SDS011;46987;32.638;-115.438;2023-05-02T01:54:15;37.40;;;4.25;;
61104;SDS011;46987;32.638;-115.438;2023-05-02T01:56:42;24.33;;;3.38;;
61104;SDS011;46987;32.638;-115.438;2023-05-02T01:59:11;28.00;;;4.38;;
61104;SDS011;46987;32.638;-115.438;2023-05-02T02:01:39;38.88;;;5.20;;
61104;SDS011;46987;32.638;-115.438;2023-05-02T02:04:08;24.95;;;3.70;;
61104;SDS011;46987;32.638;-115.438;2023-05-02T02:06:36;44.45;;;4.93;;
61104;SDS011;46987;32.638;-115.438;2023-05-02T02:09:04;44.05;;;5.05;;
61104;SDS011;46987;32.638;-115.438;2023-05-02T02:11:33;28.75;;;3.88;;
61104;SDS011;46987;32.638;-115.438;2023-05-02T02:14:05;22.00;;;3.05;;
61104;SDS011;46987;32.638;-115.438;2023-05-02T02:16:32;24.70;;;3.67;;
61104;SDS011;46987;32.638;-115.438;2023-05-02T02:19:01;20.80;;;3.42;;
61104;SDS011;46987;32.638;-115.438;2023-05-02T02:21:32;33.58;;;4.05;;
61104;SDS011;46987;32.638;-115.438;2023-05-02T02:24:00;20.88;;;3.97;;
61104;SDS011;46987;32.638;-115.438;2023-05-02T02:26:28;23.20;;;5.20;;
61104;SDS011;46987;32.638;-115.438;2023-05-02T02:28:55;24.63;;;3.45;;
61104;SDS011;46987;32.638;-115.438;2023-05-02T02:31:22;30.50;;;3.72;;
61104;SDS011;46987;32.638;-115.438;2023-05-02T02:33:50;28.98;;;4.20;;
61104;SDS011;46987;32.638;-115.438;2023-05-02T02:36:18;24.77;;;3.38;;
61104;SDS011;46987;32.638;-115.438;2023-05-02T02:38:49;10.95;;;2.35;;
61104;SDS011;46987;32.638;-115.438;2023-05-02T02:41:18;8.77;;;1.90;;
61104;SDS011;46987;32.638;-115.438;2023-05-02T02:43:51;13.02;;;2.08;;
61104;SDS011;46987;32.638;-115.438;2023-05-02T02:46:23;10.60;;;1.98;;
61104;SDS011;46987;32.638;-115.438;2023-05-02T02:48:55;12.65;;;2.28;;
61104;SDS011;46987;32.638;-115.438;2023-05-02T02:51:27;14.82;;;2.17;;
61104;SDS011;46987;32.638;-115.438;2023-05-02T02:53:57;9.75;;;1.70;;
61104;SDS011;46987;32.638;-115.438;2023-05-02T02:56:27;11.00;;;2.70;;
61104;SDS011;46987;32.638;-115.438;2023-05-02T02:58:56;10.45;;;2.30;;
61104;SDS011;46987;32.638;-115.438;2023-05-02T03:01:23;24.65;;;3.40;;
61104;SDS011;46987;32.638;-115.438;2023-05-02T03:03:50;13.38;;;3.00;;
61104;SDS011;46987;32.638;-115.438;2023-05-02T03:06:18;15.93;;;2.95;;
61104;SDS011;46987;32.638;-115.438;2023-05-02T03:08:46;18.80;;;2.88;;
61104;SDS011;46987;32.638;-115.438;2023-05-02T03:11:19;27.65;;;4.03;;
61104;SDS011;46987;32.638;-115.438;2023-05-02T03:13:46;16.95;;;3.22;;
61104;SDS011;46987;32.638;-115.438;2023-05-02T03:19:00;11.35;;;2.38;;
61104;SDS011;46987;32.638;-115.438;2023-05-02T03:21:27;12.13;;;2.22;;
61104;SDS011;46987;32.638;-115.438;2023-05-02T03:23:59;17.08;;;2.83;;
61104;SDS011;46987;32.638;-115.438;2023-05-02T03:26:27;14.77;;;2.60;;
61104;SDS011;46987;32.638;-115.438;2023-05-02T03:28:55;15.10;;;2.58;;
61104;SDS011;46987;32.638;-115.438;2023-05-02T03:31:28;17.90;;;2.42;;
61104;SDS011;46987;32.638;-115.438;2023-05-02T03:33:55;15.05;;;2.42;;
61104;SDS011;46987;32.638;-115.438;2023-05-02T03:36:22;25.40;;;4.20;;
61104;SDS011;46987;32.638;-115.438;2023-05-02T03:38:52;13.48;;;2.85;;
61104;SDS011;46987;32.638;-115.438;2023-05-02T03:41:20;16.75;;;3.53;;
61104;SDS011;46987;32.638;-115.438;2023-05-02T03:43:54;24.20;;;3.45;;
61104;SDS011;46987;32.638;-115.438;2023-05-02T03:46:23;17.52;;;2.97;;
61104;SDS011;46987;32.638;-115.438;2023-05-02T03:48:51;20.77;;;3.58;;
61104;SDS011;46987;32.638;-115.438;2023-05-02T03:51:18;17.13;;;2.10;;
61104;SDS011;46987;32.638;-115.438;2023-05-02T03:53:49;19.95;;;2.63;;
61104;SDS011;46987;32.638;-115.438;2023-05-02T03:56:16;17.33;;;2.35;;
61104;SDS011;46987;32.638;-115.438;2023-05-02T03:58:50;14.70;;;2.38;;
61104;SDS011;46987;32.638;-115.438;2023-05-02T04:01:23;18.00;;;2.17;;
61104;SDS011;46987;32.638;-115.438;2023-05-02T04:03:52;14.88;;;2.38;;
61104;SDS011;46987;32.638;-115.438;2023-05-02T04:06:22;13.63;;;1.92;;
61104;SDS011;46987;32.638;-115.438;2023-05-02T04:08:55;15.27;;;2.72;;
61104;SDS011;46987;32.638;-115.438;2023-05-02T04:11:24;17.83;;;2.47;;
61104;SDS011;46987;32.638;-115.438;2023-05-02T04:13:52;17.90;;;1.98;;
61104;SDS011;46987;32.638;-115.438;2023-05-02T04:16:19;10.60;;;1.88;;
61104;SDS011;46987;32.638;-115.438;2023-05-02T04:18:48;13.50;;;1.40;;
61104;SDS011;46987;32.638;-115.438;2023-05-02T04:21:15;13.23;;;1.92;;
61104;SDS011;46987;32.638;-115.438;2023-05-02T04:23:43;14.57;;;2.28;;
61104;SDS011;46987;32.638;-115.438;2023-05-02T04:26:10;18.85;;;2.80;;
61104;SDS011;46987;32.638;-115.438;2023-05-02T04:28:44;17.27;;;2.67;;
61104;SDS011;46987;32.638;-115.438;2023-05-02T04:31:14;14.00;;;1.90;;
61104;SDS011;46987;32.638;-115.438;2023-05-02T04:33:42;7.50;;;1.92;;
61104;SDS011;46987;32.638;-115.438;2023-05-02T04:36:12;9.30;;;2.35;;
61104;SDS011;46987;32.638;-115.438;2023-05-02T04:38:43;11.05;;;1.50;;
61104;SDS011;46987;32.638;-115.438;2023-05-02T04:41:11;15.43;;;1.35;;
61104;SDS011;46987;32.638;-115.438;2023-05-02T04:43:43;11.83;;;1.53;;
61104;SDS011;46987;32.638;-115.438;2023-05-02T04:46:12;19.52;;;2.33;;
61104;SDS011;46987;32.638;-115.438;2023-05-02T04:48:39;15.35;;;2.53;;
61104;SDS011;46987;32.638;-115.438;2023-05-02T04:51:07;19.85;;;2.17;;
61104;SDS011;46987;32.638;-115.438;2023-05-02T04:53:38;9.23;;;1.70;;
61104;SDS011;46987;32.638;-115.438;2023-05-02T04:56:05;10.88;;;1.90;;
61104;SDS011;46987;32.638;-115.438;2023-05-02T04:58:35;10.50;;;1.45;;
61104;SDS011;46987;32.638;-115.438;2023-05-02T05:01:05;12.05;;;2.25;;
61104;SDS011;46987;32.638;-115.438;2023-05-02T05:03:31;17.73;;;2.55;;
61104;SDS011;46987;32.638;-115.438;2023-05-02T05:05:58;12.80;;;1.90;;
61104;SDS011;46987;32.638;-115.438;2023-05-02T05:08:26;13.52;;;2.15;;
61104;SDS011;46987;32.638;-115.438;2023-05-02T05:10:55;20.58;;;2.90;;
61104;SDS011;46987;32.638;-115.438;2023-05-02T05:13:23;14.55;;;2.15;;
61104;SDS011;46987;32.638;-115.438;2023-05-02T05:15:53;15.15;;;2.55;;
61104;SDS011;46987;32.638;-115.438;2023-05-02T05:18:24;6.93;;;1.75;;
61104;SDS011;46987;32.638;-115.438;2023-05-02T05:20:50;7.97;;;1.73;;
61104;SDS011;46987;32.638;-115.438;2023-05-02T05:23:17;10.32;;;1.77;;
61104;SDS011;46987;32.638;-115.438;2023-05-02T05:25:44;9.05;;;1.60;;
61104;SDS011;46987;32.638;-115.438;2023-05-02T05:28:13;12.18;;;2.10;;
61104;SDS011;46987;32.638;-115.438;2023-05-02T05:30:40;8.95;;;1.90;;
61104;SDS011;46987;32.638;-115.438;2023-05-02T05:33:10;11.32;;;1.52;;
61104;SDS011;46987;32.638;-115.438;2023-05-02T05:35:37;11.93;;;2.13;;
61104;SDS011;46987;32.638;-115.438;2023-05-02T05:38:04;12.82;;;2.03;;
61104;SDS011;46987;32.638;-115.438;2023-05-02T05:40:36;19.73;;;2.33;;
61104;SDS011;46987;32.638;-115.438;2023-05-02T05:43:05;14.95;;;1.85;;
61104;SDS011;46987;32.638;-115.438;2023-05-02T05:45:37;10.10;;;1.95;;
61104;SDS011;46987;32.638;-115.438;2023-05-02T05:48:05;9.75;;;2.15;;
61104;SDS011;46987;32.638;-115.438;2023-05-02T05:50:36;10.43;;;2.50;;
61104;SDS011;46987;32.638;-115.438;2023-05-02T05:53:03;7.57;;;1.50;;
61104;SDS011;46987;32.638;-115.438;2023-05-02T05:55:29;14.90;;;2.00;;
61104;SDS011;46987;32.638;-115.438;2023-05-02T05:57:56;14.68;;;1.85;;
61104;SDS011;46987;32.638;-115.438;2023-05-02T06:00:23;13.43;;;2.83;;
61104;SDS011;46987;32.638;-115.438;2023-05-02T06:02:53;9.77;;;1.60;;
61104;SDS011;46987;32.638;-115.438;2023-05-02T06:05:25;8.90;;;2.28;;
61104;SDS011;46987;32.638;-115.438;2023-05-02T06:07:52;8.48;;;1.33;;
61104;SDS011;46987;32.638;-115.438;2023-05-02T06:10:19;8.32;;;1.42;;
61104;SDS011;46987;32.638;-115.438;2023-05-02T06:12:46;8.75;;;1.70;;
61104;SDS011;46987;32.638;-115.438;2023-05-02T06:15:14;6.95;;;1.90;;
61104;SDS011;46987;32.638;-115.438;2023-05-02T06:17:41;11.68;;;2.75;;
61104;SDS011;46987;32.638;-115.438;2023-05-02T06:20:10;10.30;;;2.17;;
61104;SDS011;46987;32.638;-115.438;2023-05-02T06:22:37;11.85;;;2.00;;
61104;SDS011;46987;32.638;-115.438;2023-05-02T06:25:05;6.60;;;2.75;;
61104;SDS011;46987;32.638;-115.438;2023-05-02T06:27:32;11.55;;;3.33;;
61104;SDS011;46987;32.638;-115.438;2023-05-02T06:29:59;10.85;;;4.30;;
61104;SDS011;46987;32.638;-115.438;2023-05-02T06:32:28;9.73;;;2.28;;
61104;SDS011;46987;32.638;-115.438;2023-05-02T06:34:55;6.50;;;1.58;;
61104;SDS011;46987;32.638;-115.438;2023-05-02T06:37:24;5.80;;;1.70;;
61104;SDS011;46987;32.638;-115.438;2023-05-02T06:39:51;9.38;;;2.00;;
61104;SDS011;46987;32.638;-115.438;2023-05-02T06:42:17;5.70;;;1.00;;
61104;SDS011;46987;32.638;-115.438;2023-05-02T06:44:44;5.68;;;1.23;;
61104;SDS011;46987;32.638;-115.438;2023-05-02T06:47:10;8.10;;;1.45;;
61104;SDS011;46987;32.638;-115.438;2023-05-02T06:49:37;6.25;;;1.25;;
61104;SDS011;46987;32.638;-115.438;2023-05-02T06:52:04;9.00;;;1.73;;
61104;SDS011;46987;32.638;-115.438;2023-05-02T06:54:32;9.68;;;1.45;;
61104;SDS011;46987;32.638;-115.438;2023-05-02T06:56:59;8.60;;;1.40;;
61104;SDS011;46987;32.638;-115.438;2023-05-02T06:59:27;5.10;;;1.35;;
61104;SDS011;46987;32.638;-115.438;2023-05-02T07:01:53;5.78;;;1.50;;
61104;SDS011;46987;32.638;-115.438;2023-05-02T07:04:20;6.15;;;1.27;;
61104;SDS011;46987;32.638;-115.438;2023-05-02T07:06:47;4.50;;;1.20;;
61104;SDS011;46987;32.638;-115.438;2023-05-02T07:09:14;8.98;;;1.08;;
61104;SDS011;46987;32.638;-115.438;2023-05-02T07:11:44;9.18;;;1.38;;
61104;SDS011;46987;32.638;-115.438;2023-05-02T07:14:11;7.22;;;1.35;;
61104;SDS011;46987;32.638;-115.438;2023-05-02T07:16:38;6.13;;;1.15;;
61104;SDS011;46987;32.638;-115.438;2023-05-02T07:19:04;3.28;;;1.17;;
61104;SDS011;46987;32.638;-115.438;2023-05-02T07:21:31;4.82;;;0.98;;
61104;SDS011;46987;32.638;-115.438;2023-05-02T07:23:58;6.07;;;1.00;;
61104;SDS011;46987;32.638;-115.438;2023-05-02T07:26:25;8.10;;;1.70;;
61104;SDS011;46987;32.638;-115.438;2023-05-02T07:28:55;7.32;;;1.23;;
61104;SDS011;46987;32.638;-115.438;2023-05-02T07:31:21;6.38;;;1.40;;
61104;SDS011;46987;32.638;-115.438;2023-05-02T07:33:48;4.88;;;0.88;;
61104;SDS011;46987;32.638;-115.438;2023-05-02T07:36:15;7.65;;;1.73;;
61104;SDS011;46987;32.638;-115.438;2023-05-02T07:38:43;8.55;;;1.45;;
61104;SDS011;46987;32.638;-115.438;2023-05-02T07:41:09;6.03;;;1.23;;
61104;SDS011;46987;32.638;-115.438;2023-05-02T07:43:36;6.70;;;1.23;;
61104;SDS011;46987;32.638;-115.438;2023-05-02T07:46:05;8.23;;;1.02;;
61104;SDS011;46987;32.638;-115.438;2023-05-02T07:48:31;7.07;;;0.98;;
61104;SDS011;46987;32.638;-115.438;2023-05-02T07:51:04;3.40;;;0.88;;
61104;SDS011;46987;32.638;-115.438;2023-05-02T07:53:32;3.40;;;0.77;;
61104;SDS011;46987;32.638;-115.438;2023-05-02T07:55:59;5.63;;;1.20;;
61104;SDS011;46987;32.638;-115.438;2023-05-02T07:58:26;3.90;;;1.50;;
61104;SDS011;46987;32.638;-115.438;2023-05-02T08:00:52;7.70;;;1.20;;
61104;SDS011;46987;32.638;-115.438;2023-05-02T08:03:21;4.60;;;0.90;;
61104;SDS011;46987;32.638;-115.438;2023-05-02T08:05:48;4.95;;;0.95;;
61104;SDS011;46987;32.638;-115.438;2023-05-02T08:08:14;4.85;;;1.13;;
61104;SDS011;46987;32.638;-115.438;2023-05-02T08:10:41;8.00;;;1.27;;
61104;SDS011;46987;32.638;-115.438;2023-05-02T08:13:08;7.00;;;0.80;;
61104;SDS011;46987;32.638;-115.438;2023-05-02T08:15:35;3.75;;;0.90;;
61104;SDS011;46987;32.638;-115.438;2023-05-02T08:18:01;4.45;;;0.93;;
61104;SDS011;46987;32.638;-115.438;2023-05-02T08:20:30;8.32;;;0.90;;
61104;SDS011;46987;32.638;-115.438;2023-05-02T08:22:56;3.42;;;1.00;;
61104;SDS011;46987;32.638;-115.438;2023-05-02T08:25:23;5.57;;;1.35;;
61104;SDS011;46987;32.638;-115.438;2023-05-02T08:27:50;9.15;;;1.40;;
61104;SDS011;46987;32.638;-115.438;2023-05-02T08:30:16;6.78;;;1.35;;
61104;SDS011;46987;32.638;-115.438;2023-05-02T08:32:44;6.35;;;1.13;;
61104;SDS011;46987;32.638;-115.438;2023-05-02T08:35:11;7.75;;;1.30;;
61104;SDS011;46987;32.638;-115.438;2023-05-02T08:37:40;5.03;;;1.00;;
61104;SDS011;46987;32.638;-115.438;2023-05-02T08:40:07;5.45;;;0.90;;
61104;SDS011;46987;32.638;-115.438;2023-05-02T08:42:36;13.98;;;1.35;;
61104;SDS011;46987;32.638;-115.438;2023-05-02T08:45:10;7.80;;;1.27;;
61104;SDS011;46987;32.638;-115.438;2023-05-02T08:47:37;5.13;;;1.75;;
61104;SDS011;46987;32.638;-115.438;2023-05-02T08:50:05;4.65;;;1.05;;
61104;SDS011;46987;32.638;-115.438;2023-05-02T08:52:33;5.80;;;1.38;;
61104;SDS011;46987;32.638;-115.438;2023-05-02T08:55:01;7.97;;;0.82;;
61104;SDS011;46987;32.638;-115.438;2023-05-02T08:57:29;4.60;;;0.80;;
61104;SDS011;46987;32.638;-115.438;2023-05-02T08:59:56;9.23;;;1.15;;
61104;SDS011;46987;32.638;-115.438;2023-05-02T09:02:25;9.07;;;1.05;;
61104;SDS011;46987;32.638;-115.438;2023-05-02T09:04:55;8.55;;;1.50;;
61104;SDS011;46987;32.638;-115.438;2023-05-02T09:07:24;7.57;;;1.17;;
61104;SDS011;46987;32.638;-115.438;2023-05-02T09:09:52;8.88;;;1.17;;
61104;SDS011;46987;32.638;-115.438;2023-05-02T09:12:25;7.45;;;1.02;;
61104;SDS011;46987;32.638;-115.438;2023-05-02T09:17:38;9.65;;;1.13;;
61104;SDS011;46987;32.638;-115.438;2023-05-02T09:20:05;6.50;;;1.00;;
61104;SDS011;46987;32.638;-115.438;2023-05-02T09:22:32;12.63;;;1.30;;
61104;SDS011;46987;32.638;-115.438;2023-05-02T09:24:59;12.25;;;1.50;;
61104;SDS011;46987;32.638;-115.438;2023-05-02T09:27:28;5.53;;;0.98;;
61104;SDS011;46987;32.638;-115.438;2023-05-02T09:29:59;5.78;;;0.82;;
61104;SDS011;46987;32.638;-115.438;2023-05-02T09:32:43;8.05;;;1.00;;
61104;SDS011;46987;32.638;-115.438;2023-05-02T09:35:10;6.95;;;0.93;;
61104;SDS011;46987;32.638;-115.438;2023-05-02T09:37:37;6.63;;;1.23;;
61104;SDS011;46987;32.638;-115.438;2023-05-02T09:40:04;5.90;;;1.30;;
61104;SDS011;46987;32.638;-115.438;2023-05-02T09:42:32;7.47;;;1.10;;
61104;SDS011;46987;32.638;-115.438;2023-05-02T09:44:59;12.63;;;1.45;;
61104;SDS011;46987;32.638;-115.438;2023-05-02T09:47:25;8.25;;;0.90;;
61104;SDS011;46987;32.638;-115.438;2023-05-02T09:49:52;5.53;;;1.27;;
61104;SDS011;46987;32.638;-115.438;2023-05-02T09:52:19;4.35;;;0.82;;
61104;SDS011;46987;32.638;-115.438;2023-05-02T09:54:49;7.75;;;1.10;;
61104;SDS011;46987;32.638;-115.438;2023-05-02T09:57:17;5.35;;;0.75;;
61104;SDS011;46987;32.638;-115.438;2023-05-02T09:59:54;3.60;;;0.80;;
61104;SDS011;46987;32.638;-115.438;2023-05-02T10:02:20;5.50;;;0.80;;
61104;SDS011;46987;32.638;-115.438;2023-05-02T10:04:47;8.55;;;0.98;;
61104;SDS011;46987;32.638;-115.438;2023-05-02T10:07:15;8.32;;;1.02;;
61104;SDS011;46987;32.638;-115.438;2023-05-02T10:09:43;5.03;;;0.90;;
61104;SDS011;46987;32.638;-115.438;2023-05-02T10:12:13;8.30;;;1.25;;
61104;SDS011;46987;32.638;-115.438;2023-05-02T10:14:40;5.85;;;0.70;;
61104;SDS011;46987;32.638;-115.438;2023-05-02T10:17:11;1.85;;;0.60;;
61104;SDS011;46987;32.638;-115.438;2023-05-02T10:19:39;4.07;;;0.50;;
61104;SDS011;46987;32.638;-115.438;2023-05-02T10:22:07;6.30;;;1.35;;
61104;SDS011;46987;32.638;-115.438;2023-05-02T10:24:34;3.45;;;0.60;;
61104;SDS011;46987;32.638;-115.438;2023-05-02T10:27:01;5.63;;;1.02;;
61104;SDS011;46987;32.638;-115.438;2023-05-02T10:29:30;2.33;;;0.68;;
61104;SDS011;46987;32.638;-115.438;2023-05-02T10:32:01;5.55;;;0.60;;
61104;SDS011;46987;32.638;-115.438;2023-05-02T10:34:31;4.28;;;0.60;;
61104;SDS011;46987;32.638;-115.438;2023-05-02T10:36:59;3.67;;;0.77;;
61104;SDS011;46987;32.638;-115.438;2023-05-02T10:39:28;2.45;;;0.63;;
61104;SDS011;46987;32.638;-115.438;2023-05-02T10:41:56;2.90;;;0.60;;
61104;SDS011;46987;32.638;-115.438;2023-05-02T10:44:31;3.33;;;0.70;;
61104;SDS011;46987;32.638;-115.438;2023-05-02T10:46:58;3.13;;;0.75;;
61104;SDS011;46987;32.638;-115.438;2023-05-02T10:49:24;5.47;;;0.80;;
61104;SDS011;46987;32.638;-115.438;2023-05-02T10:51:54;7.32;;;0.80;;
61104;SDS011;46987;32.638;-115.438;2023-05-02T10:54:21;5.25;;;0.73;;
61104;SDS011;46987;32.638;-115.438;2023-05-02T10:57:03;7.95;;;0.90;;
61104;SDS011;46987;32.638;-115.438;2023-05-02T10:59:31;2.63;;;0.52;;
61104;SDS011;46987;32.638;-115.438;2023-05-02T11:01:58;5.15;;;0.70;;
61104;SDS011;46987;32.638;-115.438;2023-05-02T11:04:35;5.45;;;0.80;;
61104;SDS011;46987;32.638;-115.438;2023-05-02T11:07:24;2.30;;;0.40;;
61104;SDS011;46987;32.638;-115.438;2023-05-02T11:09:51;1.75;;;0.40;;
61104;SDS011;46987;32.638;-115.438;2023-05-02T11:15:02;2.50;;;0.40;;
61104;SDS011;46987;32.638;-115.438;2023-05-02T11:17:31;2.60;;;0.43;;
61104;SDS011;46987;32.638;-115.438;2023-05-02T11:20:19;4.13;;;0.60;;
61104;SDS011;46987;32.638;-115.438;2023-05-02T11:22:47;2.95;;;0.40;;
61104;SDS011;46987;32.638;-115.438;2023-05-02T11:25:31;2.20;;;0.40;;
61104;SDS011;46987;32.638;-115.438;2023-05-02T11:27:58;2.58;;;0.57;;
61104;SDS011;46987;32.638;-115.438;2023-05-02T11:30:43;5.93;;;1.05;;
61104;SDS011;46987;32.638;-115.438;2023-05-02T11:33:14;3.72;;;0.63;;
61104;SDS011;46987;32.638;-115.438;2023-05-02T11:35:42;1.83;;;0.50;;
61104;SDS011;46987;32.638;-115.438;2023-05-02T11:38:11;2.97;;;0.60;;
61104;SDS011;46987;32.638;-115.438;2023-05-02T11:40:38;2.40;;;0.52;;
61104;SDS011;46987;32.638;-115.438;2023-05-02T11:43:11;1.77;;;0.57;;
61104;SDS011;46987;32.638;-115.438;2023-05-02T11:48:11;2.58;;;0.60;;
61104;SDS011;46987;32.638;-115.438;2023-05-02T11:50:41;4.53;;;0.45;;
61104;SDS011;46987;32.638;-115.438;2023-05-02T11:53:13;3.45;;;1.15;;
61104;SDS011;46987;32.638;-115.438;2023-05-02T11:55:49;4.18;;;0.65;;
61104;SDS011;46987;32.638;-115.438;2023-05-02T11:58:17;2.53;;;0.65;;
61104;SDS011;46987;32.638;-115.438;2023-05-02T12:00:44;3.55;;;0.68;;
61104;SDS011;46987;32.638;-115.438;2023-05-02T12:03:25;3.95;;;0.60;;
61104;SDS011;46987;32.638;-115.438;2023-05-02T12:05:52;3.50;;;0.60;;
61104;SDS011;46987;32.638;-115.438;2023-05-02T12:08:31;3.08;;;0.60;;
61104;SDS011;46987;32.638;-115.438;2023-05-02T12:10:58;2.13;;;0.65;;
61104;SDS011;46987;32.638;-115.438;2023-05-02T12:13:25;2.13;;;0.50;;
61104;SDS011;46987;32.638;-115.438;2023-05-02T12:15:52;2.42;;;0.52;;
61104;SDS011;46987;32.638;-115.438;2023-05-02T12:18:20;2.63;;;0.80;;
61104;SDS011;46987;32.638;-115.438;2023-05-02T12:20:50;5.50;;;1.00;;
61104;SDS011;46987;32.638;-115.438;2023-05-02T12:23:17;3.72;;;1.05;;
61104;SDS011;46987;32.638;-115.438;2023-05-02T12:25:46;2.50;;;0.85;;
61104;SDS011;46987;32.638;-115.438;2023-05-02T12:28:15;3.50;;;0.90;;
61104;SDS011;46987;32.638;-115.438;2023-05-02T12:30:43;2.67;;;0.65;;
61104;SDS011;46987;32.638;-115.438;2023-05-02T12:33:10;2.97;;;0.50;;
61104;SDS011;46987;32.638;-115.438;2023-05-02T12:35:36;3.95;;;0.90;;
61104;SDS011;46987;32.638;-115.438;2023-05-02T12:38:13;4.72;;;0.75;;
61104;SDS011;46987;32.638;-115.438;2023-05-02T12:43:26;9.27;;;1.00;;
61104;SDS011;46987;32.638;-115.438;2023-05-02T12:48:33;2.20;;;0.73;;
61104;SDS011;46987;32.638;-115.438;2023-05-02T12:51:00;2.60;;;0.80;;
61104;SDS011;46987;32.638;-115.438;2023-05-02T12:53:39;3.00;;;0.88;;
61104;SDS011;46987;32.638;-115.438;2023-05-02T12:56:06;2.53;;;0.70;;
61104;SDS011;46987;32.638;-115.438;2023-05-02T12:58:41;5.18;;;1.48;;
61104;SDS011;46987;32.638;-115.438;2023-05-02T13:01:08;4.25;;;1.08;;
61104;SDS011;46987;32.638;-115.438;2023-05-02T13:03:35;4.10;;;0.85;;
61104;SDS011;46987;32.638;-115.438;2023-05-02T13:06:02;3.83;;;0.63;;
61104;SDS011;46987;32.638;-115.438;2023-05-02T13:08:28;3.50;;;0.85;;
61104;SDS011;46987;32.638;-115.438;2023-05-02T13:10:55;3.13;;;0.75;;
61104;SDS011;46987;32.638;-115.438;2023-05-02T13:13:22;4.75;;;0.75;;
61104;SDS011;46987;32.638;-115.438;2023-05-02T13:15:51;6.15;;;1.00;;
61104;SDS011;46987;32.638;-115.438;2023-05-02T13:18:17;4.13;;;1.00;;
61104;SDS011;46987;32.638;-115.438;2023-05-02T13:20:44;4.38;;;1.10;;
61104;SDS011;46987;32.638;-115.438;2023-05-02T13:23:11;6.57;;;1.10;;
61104;SDS011;46987;32.638;-115.438;2023-05-02T13:25:37;6.57;;;1.00;;
61104;SDS011;46987;32.638;-115.438;2023-05-02T13:28:04;5.32;;;0.80;;
61104;SDS011;46987;32.638;-115.438;2023-05-02T13:30:31;7.85;;;1.15;;
61104;SDS011;46987;32.638;-115.438;2023-05-02T13:33:00;5.82;;;1.40;;
61104;SDS011;46987;32.638;-115.438;2023-05-02T13:35:26;5.43;;;1.10;;
61104;SDS011;46987;32.638;-115.438;2023-05-02T13:37:53;3.58;;;1.00;;
61104;SDS011;46987;32.638;-115.438;2023-05-02T13:40:19;8.77;;;1.45;;
61104;SDS011;46987;32.638;-115.438;2023-05-02T13:42:46;6.85;;;1.15;;
61104;SDS011;46987;32.638;-115.438;2023-05-02T13:45:13;10.15;;;1.30;;
61104;SDS011;46987;32.638;-115.438;2023-05-02T13:47:39;5.10;;;0.82;;
61104;SDS011;46987;32.638;-115.438;2023-05-02T13:50:08;7.97;;;0.88;;
61104;SDS011;46987;32.638;-115.438;2023-05-02T13:52:35;6.47;;;1.30;;
61104;SDS011;46987;32.638;-115.438;2023-05-02T13:55:01;7.07;;;1.02;;
61104;SDS011;46987;32.638;-115.438;2023-05-02T13:57:28;4.32;;;0.80;;
61104;SDS011;46987;32.638;-115.438;2023-05-02T13:59:55;8.45;;;1.10;;
61104;SDS011;46987;32.638;-115.438;2023-05-02T14:02:21;4.68;;;0.65;;
61104;SDS011;46987;32.638;-115.438;2023-05-02T14:04:48;4.95;;;1.20;;
61104;SDS011;46987;32.638;-115.438;2023-05-02T14:07:16;4.80;;;0.85;;
61104;SDS011;46987;32.638;-115.438;2023-05-02T14:09:42;7.82;;;1.13;;
61104;SDS011;46987;32.638;-115.438;2023-05-02T14:12:09;12.23;;;1.23;;
61104;SDS011;46987;32.638;-115.438;2023-05-02T14:14:36;6.65;;;0.90;;
61104;SDS011;46987;32.638;-115.438;2023-05-02T14:17:03;7.32;;;1.10;;
61104;SDS011;46987;32.638;-115.438;2023-05-02T14:19:30;9.32;;;1.27;;
61104;SDS011;46987;32.638;-115.438;2023-05-02T14:21:57;4.78;;;0.77;;
61104;SDS011;46987;32.638;-115.438;2023-05-02T14:24:25;6.20;;;1.02;;
61104;SDS011;46987;32.638;-115.438;2023-05-02T14:26:52;6.60;;;1.15;;